createdAt,value
2018-04-23T00:01:54.548Z,70.50
2018-04-23T00:04:22.071Z,70.40
2018-04-23T00:06:49.583Z,70.30
2018-04-23T00:09:17.118Z,70.20
2018-04-23T00:11:44.619Z,70.60
2018-04-23T00:14:12.151Z,70.50
2018-04-23T00:16:39.666Z,70.30
2018-04-23T00:19:07.310Z,70.90
2018-04-23T00:21:34.921Z,70.70
2018-04-23T00:24:02.450Z,71.10
2018-04-23T00:26:29.955Z,71.20
2018-04-23T00:28:58.306Z,71.30
2018-04-23T00:31:25.811Z,71.20
2018-04-23T00:33:53.344Z,71.20
2018-04-23T00:36:21.612Z,71.20
2018-04-23T00:38:49.155Z,71.70
2018-04-23T00:41:16.646Z,71.20
2018-04-23T00:43:44.199Z,70.60
2018-04-23T00:46:12.512Z,70.80
2018-04-23T00:48:40.058Z,70.70
2018-04-23T00:51:07.556Z,71.00
2018-04-23T00:53:39.085Z,70.50
2018-04-23T00:56:06.578Z,70.60
2018-04-23T00:58:34.125Z,70.50
2018-04-23T01:01:01.621Z,71.10
2018-04-23T01:03:29.158Z,71.20
2018-04-23T01:05:56.658Z,71.20
2018-04-23T01:08:24.200Z,71.20
2018-04-23T01:10:51.711Z,71.10
2018-04-23T01:13:19.248Z,71.70
2018-04-23T01:15:46.774Z,71.10
2018-04-23T01:18:14.321Z,71.30
2018-04-23T01:20:41.811Z,71.60
2018-04-23T01:23:09.366Z,71.10
2018-04-23T01:25:36.855Z,71.30
2018-04-23T01:28:04.355Z,71.80
2018-04-23T01:30:31.891Z,71.70
2018-04-23T01:32:59.388Z,71.70
2018-04-23T01:35:26.927Z,72.00
2018-04-23T01:37:54.425Z,71.70
2018-04-23T01:40:21.988Z,72.00
2018-04-23T01:42:49.478Z,72.40
2018-04-23T01:45:17.014Z,72.70
2018-04-23T01:47:44.518Z,72.70
2018-04-23T01:50:12.831Z,72.60
2018-04-23T01:52:40.338Z,72.60
2018-04-23T01:55:07.875Z,72.60
2018-04-23T01:57:35.374Z,72.70
2018-04-23T02:00:03.065Z,72.80
2018-04-23T02:02:30.574Z,72.90
2018-04-23T02:04:58.132Z,73.00
2018-04-23T02:07:25.640Z,73.00
2018-04-23T02:09:53.141Z,72.80
2018-04-23T02:12:20.689Z,73.00
2018-04-23T02:14:48.235Z,73.20
2018-04-23T02:17:15.769Z,73.40
2018-04-23T02:19:44.037Z,73.60
2018-04-23T02:22:12.344Z,73.60
2018-04-23T02:24:39.839Z,73.60
2018-04-23T02:27:07.387Z,73.50
2018-04-23T02:29:34.931Z,73.60
2018-04-23T02:32:02.459Z,73.50
2018-04-23T02:34:29.954Z,73.70
2018-04-23T02:36:57.504Z,73.60
2018-04-23T02:39:25.006Z,73.80
2018-04-23T02:41:52.554Z,73.70
2018-04-23T02:44:20.056Z,73.90
2018-04-23T02:46:48.384Z,74.10
2018-04-23T02:49:15.886Z,74.00
2018-04-23T02:51:43.383Z,74.10
2018-04-23T02:54:10.934Z,74.20
2018-04-23T02:56:38.434Z,74.40
2018-04-23T02:59:05.985Z,74.40
2018-04-23T03:01:33.482Z,74.70
2018-04-23T03:04:01.784Z,74.90
2018-04-23T03:06:29.286Z,74.90
2018-04-23T03:08:56.824Z,74.80
2018-04-23T03:11:24.331Z,74.80
2018-04-23T03:13:52.636Z,74.80
2018-04-23T03:16:20.135Z,74.70
2018-04-23T03:18:47.682Z,74.70
2018-04-23T03:21:15.182Z,75.20
2018-04-23T03:23:43.495Z,75.30
2018-04-23T03:26:10.986Z,75.20
2018-04-23T03:28:38.543Z,75.30
2018-04-23T03:31:06.049Z,75.30
2018-04-23T03:33:33.558Z,75.70
2018-04-23T03:36:01.107Z,75.80
2018-04-23T03:38:28.609Z,75.90
2018-04-23T03:40:56.912Z,76.20
2018-04-23T03:43:24.403Z,76.10
2018-04-23T03:45:51.933Z,76.10
2018-04-23T03:48:19.430Z,76.40
2018-04-23T03:50:46.987Z,76.20
2018-04-23T03:53:14.494Z,76.60
2018-04-23T03:55:42.029Z,76.70
2018-04-23T03:58:10.299Z,77.00
2018-04-23T04:00:37.874Z,76.70
2018-04-23T04:03:05.374Z,76.60
2018-04-23T04:05:32.870Z,76.60
2018-04-23T04:08:00.414Z,76.60
2018-04-23T04:10:27.921Z,76.70
2018-04-23T04:13:07.306Z,77.00
2018-04-23T04:15:46.626Z,77.10
2018-04-23T04:18:34.767Z,76.80
2018-04-23T04:21:02.318Z,76.80
2018-04-23T04:23:29.823Z,77.00
2018-04-23T04:25:58.101Z,77.10
2018-04-23T04:28:25.636Z,77.00
2018-04-23T04:30:53.129Z,77.00
2018-04-23T04:33:21.426Z,77.00
2018-04-23T04:35:48.926Z,77.00
2018-04-23T04:38:16.481Z,77.10
2018-04-23T04:40:43.982Z,76.90
2018-04-23T04:43:12.287Z,76.70
2018-04-23T04:45:39.786Z,76.70
2018-04-23T04:48:07.319Z,76.80
2018-04-23T04:50:34.830Z,76.40
2018-04-23T04:53:03.141Z,76.40
2018-04-23T04:55:30.648Z,76.30
2018-04-23T04:57:58.202Z,76.40
2018-04-23T05:00:25.705Z,76.10
2018-04-23T05:02:53.241Z,76.20
2018-04-23T05:05:20.742Z,76.30
2018-04-23T05:07:48.286Z,76.30
2018-04-23T05:10:15.791Z,76.30
2018-04-23T05:12:43.322Z,76.00
2018-04-23T05:15:10.857Z,76.30
2018-04-23T05:17:39.120Z,76.70
2018-04-23T05:20:07.421Z,75.80
2018-04-23T05:22:34.963Z,75.80
2018-04-23T05:25:02.485Z,76.10
2018-04-23T05:27:30.031Z,75.30
2018-04-23T05:29:59.511Z,75.50
2018-04-23T05:32:27.055Z,75.50
2018-04-23T05:34:54.550Z,75.50
2018-04-23T05:37:22.098Z,75.50
2018-04-23T05:39:49.655Z,75.50
2018-04-23T05:42:17.155Z,75.60
2018-04-23T05:44:44.711Z,75.70
2018-04-23T05:47:12.206Z,75.20
2018-04-23T05:49:39.751Z,74.40
2018-04-23T05:52:08.055Z,73.90
2018-04-23T05:54:35.624Z,74.40
2018-04-23T05:57:03.130Z,74.10
2018-04-23T05:59:30.631Z,74.30
2018-04-23T06:01:58.380Z,74.10
2018-04-23T06:04:25.891Z,74.50
2018-04-23T06:06:53.463Z,74.50
2018-04-23T06:09:21.736Z,74.10
2018-04-23T06:11:49.234Z,74.10
2018-04-23T06:14:16.789Z,73.60
2018-04-23T06:16:44.324Z,73.60
2018-04-23T06:19:11.821Z,73.30
2018-04-23T06:21:39.477Z,72.40
2018-04-23T06:24:06.973Z,72.30
2018-04-23T06:26:34.528Z,72.50
2018-04-23T06:29:02.026Z,72.90
2018-04-23T06:31:29.565Z,72.40
2018-04-23T06:33:57.067Z,72.40
2018-04-23T06:36:24.622Z,72.60
2018-04-23T06:38:52.123Z,72.60
2018-04-23T06:41:19.656Z,72.20
2018-04-23T06:43:47.166Z,71.60
2018-04-23T06:46:14.698Z,70.80
2018-04-23T06:48:42.199Z,70.60
2018-04-23T06:51:10.676Z,70.70
2018-04-23T06:53:38.935Z,70.90
2018-04-23T06:56:06.440Z,70.90
2018-04-23T06:58:33.963Z,70.00
2018-04-23T07:01:01.472Z,70.40
2018-04-23T07:03:29.023Z,70.10
2018-04-23T07:05:56.570Z,69.00
2018-04-23T07:08:24.061Z,69.30
2018-04-23T07:10:51.562Z,68.90
2018-04-23T07:13:19.902Z,69.00
2018-04-23T07:15:47.620Z,68.80
2018-04-23T07:18:15.715Z,69.10
2018-04-23T07:20:43.209Z,69.10
2018-04-23T07:23:10.808Z,69.30
2018-04-23T07:25:38.323Z,69.20
2018-04-23T07:28:05.884Z,69.50
2018-04-23T07:30:33.457Z,68.80
2018-04-23T07:33:00.998Z,68.80
2018-04-23T07:35:28.725Z,68.70
2018-04-23T07:37:56.224Z,68.70
2018-04-23T07:40:23.731Z,68.60
2018-04-23T07:42:52.031Z,68.50
2018-04-23T07:45:19.580Z,68.50
2018-04-23T07:47:47.086Z,70.50
2018-04-23T07:50:14.638Z,69.90
2018-04-23T07:52:42.152Z,72.10
2018-04-23T07:55:09.731Z,72.80
2018-04-23T07:57:37.269Z,72.70
2018-04-23T08:00:04.943Z,72.70
2018-04-23T08:02:32.482Z,73.20
2018-04-23T08:04:59.986Z,73.00
2018-04-23T08:07:27.531Z,72.80
2018-04-23T08:09:55.027Z,72.70
2018-04-23T08:12:22.560Z,72.10
2018-04-23T08:14:50.062Z,72.00
2018-04-23T08:17:17.601Z,72.50
2018-04-23T08:19:45.152Z,72.20
2018-04-23T08:22:12.698Z,72.00
2018-04-23T08:24:40.201Z,71.90
2018-04-23T08:27:08.512Z,70.40
2018-04-23T08:29:36.064Z,70.40
2018-04-23T08:32:03.653Z,69.60
2018-04-23T08:34:31.899Z,69.60
2018-04-23T08:36:59.442Z,69.60
2018-04-23T08:39:26.940Z,70.20
2018-04-23T08:41:54.554Z,69.60
2018-04-23T08:44:22.057Z,69.70
2018-04-23T08:46:49.558Z,69.60
2018-04-23T08:49:17.873Z,69.90
2018-04-23T08:51:45.382Z,69.80
2018-04-23T08:54:13.083Z,69.80
2018-04-23T08:56:40.593Z,69.90
2018-04-23T08:59:08.130Z,69.80
2018-04-23T09:01:35.638Z,69.90
2018-04-23T09:04:03.178Z,70.20
2018-04-23T09:06:30.681Z,70.20
2018-04-23T09:08:58.222Z,70.00
2018-04-23T09:11:25.727Z,69.60
2018-04-23T09:13:53.286Z,68.90
2018-04-23T09:16:21.063Z,69.10
2018-04-23T09:18:48.566Z,69.20
2018-04-23T09:21:16.881Z,68.70
2018-04-23T09:23:44.567Z,68.60
2018-04-23T09:26:12.118Z,69.00
2018-04-23T09:28:39.661Z,68.90
2018-04-23T09:31:07.194Z,69.10
2018-04-23T09:33:34.699Z,68.90
2018-04-23T09:36:02.240Z,69.10
2018-04-23T09:38:29.745Z,69.20
2018-04-23T09:40:57.290Z,68.70
2018-04-23T09:43:24.847Z,68.60
2018-04-23T09:45:52.356Z,69.00
2018-04-23T09:48:19.850Z,69.30
2018-04-23T09:50:47.379Z,68.60
2018-04-23T09:53:14.918Z,68.60
2018-04-23T09:55:42.430Z,69.10
2018-04-23T09:58:09.959Z,68.90
2018-04-23T10:00:37.455Z,69.10
2018-04-23T10:03:08.699Z,69.20
2018-04-23T10:05:36.209Z,68.80
2018-04-23T10:08:03.756Z,69.00
2018-04-23T10:10:32.425Z,69.10
2018-04-23T10:12:59.927Z,69.30
2018-04-23T10:15:27.471Z,69.40
2018-04-23T10:17:54.975Z,69.90
2018-04-23T10:20:22.528Z,69.80
2018-04-23T10:22:50.091Z,69.70
2018-04-23T10:25:17.640Z,69.50
2018-04-23T10:27:45.133Z,70.00
2018-04-23T10:30:13.547Z,71.10
2018-04-23T10:32:41.059Z,71.00
2018-04-23T10:35:08.598Z,71.20
2018-04-23T10:37:36.151Z,71.40
2018-04-23T10:40:03.734Z,71.00
2018-04-23T10:42:31.255Z,71.30
2018-04-23T10:44:58.759Z,72.00
2018-04-23T10:47:27.136Z,71.10
2018-04-23T10:49:54.738Z,71.10
2018-04-23T10:52:22.240Z,70.80
2018-04-23T10:54:49.793Z,70.50
2018-04-23T10:57:17.310Z,70.60
2018-04-23T10:59:44.896Z,69.90
2018-04-23T11:02:12.407Z,69.10
2018-04-23T11:04:40.707Z,68.40
2018-04-23T11:07:08.226Z,68.40
2018-04-23T11:09:35.810Z,68.10
2018-04-23T11:12:03.349Z,67.70
2018-04-23T11:14:30.850Z,67.80
2018-04-23T11:16:58.374Z,66.80
2018-04-23T11:19:26.634Z,66.80
2018-04-23T11:21:54.418Z,66.70
2018-04-23T11:24:21.933Z,66.90
2018-04-23T11:26:49.492Z,66.90
2018-04-23T11:29:16.981Z,66.40
2018-04-23T11:31:44.527Z,66.10
2018-04-23T11:34:12.030Z,65.80
2018-04-23T11:36:39.804Z,65.80
2018-04-23T11:39:07.315Z,66.10
2018-04-23T11:41:34.896Z,65.80
2018-04-23T11:44:02.397Z,65.70
2018-04-23T11:46:29.921Z,66.10
2018-04-23T11:48:58.207Z,65.20
2018-04-23T11:51:25.703Z,65.20
2018-04-23T11:53:53.254Z,65.00
2018-04-23T11:56:21.074Z,65.00
2018-04-23T11:58:48.599Z,65.20
2018-04-23T12:01:16.094Z,65.30
2018-04-23T12:03:44.407Z,65.00
2018-04-23T12:06:11.898Z,65.00
2018-04-23T12:08:39.433Z,65.20
2018-04-23T12:11:06.942Z,65.50
2018-04-23T12:13:35.261Z,65.20
2018-04-23T12:16:02.759Z,65.20
2018-04-23T12:18:31.801Z,64.70
2018-04-23T12:20:59.296Z,64.70
2018-04-23T12:23:26.991Z,64.40
2018-04-23T12:25:54.500Z,64.40
2018-04-23T12:28:22.355Z,64.50
2018-04-23T12:30:49.873Z,64.30
2018-04-23T12:33:18.143Z,63.80
2018-04-23T12:35:46.524Z,62.90
2018-04-23T12:38:14.031Z,62.90
2018-04-23T12:40:41.567Z,63.10
2018-04-23T12:43:09.067Z,63.00
2018-04-23T12:45:36.616Z,63.20
2018-04-23T12:48:04.116Z,63.40
2018-04-23T12:50:32.449Z,63.50
2018-04-23T12:52:59.950Z,63.50
2018-04-23T12:55:27.497Z,63.80
2018-04-23T12:57:55.075Z,63.10
2018-04-23T13:00:22.691Z,63.30
2018-04-23T13:02:50.207Z,62.50
2018-04-23T13:05:17.756Z,62.50
2018-04-23T13:07:46.228Z,62.60
2018-04-23T13:10:14.563Z,62.80
2018-04-23T13:12:42.112Z,62.70
2018-04-23T13:15:09.616Z,61.80
2018-04-23T13:17:37.160Z,60.80
2018-04-23T13:20:04.673Z,60.60
2018-04-23T13:22:32.239Z,60.90
2018-04-23T13:24:59.754Z,61.20
2018-04-23T13:27:27.311Z,60.90
2018-04-23T13:29:54.834Z,61.50
2018-04-23T13:32:22.373Z,62.50
2018-04-23T13:34:49.921Z,62.30
2018-04-23T13:37:17.442Z,62.10
2018-04-23T13:39:44.988Z,62.50
2018-04-23T13:42:12.494Z,62.80
2018-04-23T13:44:40.050Z,63.70
2018-04-23T13:47:07.546Z,63.70
2018-04-23T13:49:35.085Z,64.20
2018-04-23T13:52:02.595Z,63.80
2018-04-23T13:54:30.149Z,64.00
2018-04-23T13:56:57.666Z,64.10
2018-04-23T13:59:25.214Z,64.20
2018-04-23T14:01:52.835Z,64.00
2018-04-23T14:04:20.363Z,64.80
2018-04-23T14:06:47.881Z,63.30
2018-04-23T14:09:16.198Z,60.60
2018-04-23T14:11:43.711Z,60.60
2018-04-23T14:14:11.228Z,60.10
2018-04-23T14:16:38.774Z,60.70
2018-04-23T14:19:07.254Z,61.60
2018-04-23T14:21:34.984Z,61.70
2018-04-23T14:24:02.528Z,62.10
2018-04-23T14:26:30.059Z,62.70
2018-04-23T14:28:57.568Z,62.50
2018-04-23T14:31:25.126Z,62.60
2018-04-23T14:33:52.629Z,63.10
2018-04-23T14:36:20.170Z,63.40
2018-04-23T14:38:47.701Z,63.80
2018-04-23T14:41:15.242Z,64.80
2018-04-23T14:43:42.762Z,81.10
2018-04-23T14:46:10.912Z,82.60
2018-04-23T14:48:38.430Z,92.00
2018-04-23T14:51:05.975Z,94.60
2018-04-23T14:53:33.527Z,95.90
2018-04-23T14:56:01.064Z,98.20
2018-04-23T14:58:28.608Z,98.00
2018-04-23T15:00:56.520Z,97.00
2018-04-23T15:03:24.058Z,99.30
2018-04-23T15:05:51.568Z,99.90
2018-04-23T15:08:19.969Z,99.90
2018-04-23T15:10:47.461Z,99.90
2018-04-23T15:13:16.837Z,99.90
2018-04-23T15:15:44.564Z,99.90
2018-04-23T15:18:12.126Z,99.90
2018-04-23T15:20:39.703Z,99.90
2018-04-23T15:23:07.364Z,99.90
2018-04-23T15:25:34.874Z,99.90
2018-04-23T15:28:02.428Z,99.90
2018-04-23T15:30:29.930Z,99.90
2018-04-23T15:32:57.501Z,99.90
2018-04-23T15:35:25.042Z,99.90
2018-04-23T15:37:52.553Z,99.90
2018-04-23T15:40:21.405Z,99.90
2018-04-23T15:42:48.914Z,99.90
2018-04-23T15:45:16.481Z,99.90
2018-04-23T15:47:44.027Z,99.90
2018-04-23T15:50:11.840Z,99.90
2018-04-23T15:52:40.198Z,99.90
2018-04-23T15:55:07.706Z,99.90
2018-04-23T15:57:35.215Z,99.90
2018-04-23T16:00:02.761Z,99.90
2018-04-23T16:02:30.280Z,99.90
2018-04-23T16:04:57.832Z,99.90
2018-04-23T16:07:25.341Z,99.90
2018-04-23T16:09:53.658Z,99.90
2018-04-23T16:12:21.168Z,99.90
2018-04-23T16:14:48.711Z,99.90
2018-04-23T16:17:16.249Z,99.90
2018-04-23T16:19:43.803Z,99.90
2018-04-23T16:22:11.413Z,99.90
2018-04-23T16:24:39.005Z,99.90
2018-04-23T16:27:06.522Z,99.90
2018-04-23T16:29:34.034Z,99.90
2018-04-23T16:32:01.573Z,99.90
2018-04-23T16:34:29.150Z,99.90
2018-04-23T16:36:56.720Z,99.90
2018-04-23T16:39:24.244Z,99.90
2018-04-23T16:41:51.814Z,99.90
2018-04-23T16:44:19.332Z,99.90
2018-04-23T16:46:48.402Z,99.90
2018-04-23T16:49:15.942Z,99.90
2018-04-23T16:51:43.479Z,99.90
2018-04-23T16:54:11.766Z,99.90
2018-04-23T16:56:39.340Z,99.90
2018-04-23T16:59:06.900Z,99.90
2018-04-23T17:01:34.444Z,99.90
2018-04-23T17:04:01.959Z,99.90
2018-04-23T17:06:29.576Z,99.90
2018-04-23T17:08:57.081Z,99.90
2018-04-23T17:11:24.635Z,99.90
2018-04-23T17:13:52.207Z,99.90
2018-04-23T17:16:19.735Z,99.90
2018-04-23T17:18:47.525Z,99.90
2018-04-23T17:21:15.043Z,99.90
2018-04-23T17:23:42.624Z,99.90
2018-04-23T17:26:10.148Z,99.90
2018-04-23T17:28:37.837Z,99.90
2018-04-23T17:31:05.354Z,99.90
2018-04-23T17:33:32.910Z,99.90
2018-04-23T17:36:01.197Z,99.90
2018-04-23T17:38:28.722Z,99.90
2018-04-23T17:40:56.277Z,99.90
2018-04-23T17:43:23.795Z,99.90
2018-04-23T17:45:51.335Z,99.90
2018-04-23T17:48:18.835Z,99.90
2018-04-23T17:50:46.380Z,99.90
2018-04-23T17:53:13.929Z,99.90
2018-04-23T17:55:41.504Z,99.90
2018-04-23T17:58:09.017Z,99.90
2018-04-23T18:00:36.582Z,99.90
2018-04-23T18:03:05.589Z,99.90
2018-04-23T18:05:33.159Z,99.90
2018-04-23T18:08:00.671Z,99.90
2018-04-23T18:10:28.217Z,99.90
2018-04-23T18:12:55.758Z,99.90
2018-04-23T18:15:23.292Z,99.90
2018-04-23T18:17:50.805Z,99.90
2018-04-23T18:20:19.393Z,99.90
2018-04-23T18:22:46.961Z,99.90
2018-04-23T18:25:15.281Z,99.90
2018-04-23T18:27:42.791Z,99.90
2018-04-23T18:30:10.360Z,99.90
2018-04-23T18:32:38.696Z,99.90
2018-04-23T18:35:06.225Z,99.90
2018-04-23T18:37:33.784Z,99.90
2018-04-23T18:40:01.285Z,99.90
2018-04-23T18:42:28.851Z,99.90
2018-04-23T18:44:56.364Z,99.90
2018-04-23T18:47:23.965Z,99.90
2018-04-23T18:49:51.505Z,99.90
2018-04-23T18:52:19.124Z,99.90
2018-04-23T18:54:47.422Z,99.90
2018-04-23T18:57:15.168Z,99.90
2018-04-23T18:59:42.749Z,99.90
2018-04-23T19:02:10.251Z,99.90
2018-04-23T19:04:37.795Z,99.90
2018-04-23T19:07:05.322Z,99.90
2018-04-23T19:09:32.871Z,99.90
2018-04-23T19:12:00.380Z,99.90
2018-04-23T19:14:28.699Z,99.90
2018-04-23T19:16:56.240Z,99.90
2018-04-23T19:19:23.774Z,99.90
2018-04-23T19:21:51.330Z,99.90
2018-04-23T19:24:18.894Z,99.90
2018-04-23T19:26:46.412Z,99.90
2018-04-23T19:29:13.929Z,99.90
2018-04-23T19:31:41.488Z,99.90
2018-04-23T19:34:09.779Z,99.90
2018-04-23T19:36:38.137Z,99.90
2018-04-23T19:39:06.459Z,99.90
2018-04-23T19:41:34.012Z,99.90
2018-04-23T19:44:01.521Z,99.90
2018-04-23T19:46:29.066Z,99.90
2018-04-23T19:48:56.587Z,99.90
2018-04-23T19:51:24.149Z,99.90
2018-04-23T19:53:51.670Z,99.90
2018-04-23T19:56:19.206Z,99.90
2018-04-23T19:58:46.715Z,99.90
2018-04-23T20:01:14.396Z,99.90
2018-04-23T20:03:41.911Z,99.90
2018-04-23T20:06:09.465Z,99.90
2018-04-23T20:08:37.037Z,99.90
2018-04-23T20:11:05.322Z,99.90
2018-04-23T20:13:33.598Z,99.90
2018-04-23T20:16:01.909Z,99.90
2018-04-23T20:18:29.473Z,99.90
2018-04-23T20:20:56.997Z,99.90
2018-04-23T20:23:25.428Z,99.90
2018-04-23T20:25:52.975Z,99.90
2018-04-23T20:28:20.488Z,99.90
2018-04-23T20:30:48.027Z,99.90
2018-04-23T20:33:15.535Z,99.90
2018-04-23T20:35:43.079Z,99.90
2018-04-23T20:38:10.575Z,99.90
2018-04-23T20:40:38.201Z,99.90
2018-04-23T20:43:05.849Z,99.90
2018-04-23T20:45:33.357Z,99.90
2018-04-23T20:48:00.866Z,99.90
2018-04-23T20:50:29.271Z,99.90
2018-04-23T20:52:56.774Z,99.90
2018-04-23T20:55:24.309Z,99.90
2018-04-23T20:57:51.802Z,99.90
2018-04-23T21:00:20.117Z,99.90
2018-04-23T21:02:47.623Z,99.90
2018-04-23T21:05:15.165Z,99.90
2018-04-23T21:07:42.670Z,99.90
2018-04-23T21:10:10.215Z,99.90
2018-04-23T21:12:37.791Z,99.90
2018-04-23T21:15:05.296Z,99.90
2018-04-23T21:17:32.833Z,99.90
2018-04-23T21:20:00.571Z,99.90
2018-04-23T21:22:28.273Z,99.90
2018-04-23T21:24:55.880Z,99.90
2018-04-23T21:27:23.588Z,99.90
2018-04-23T21:29:51.146Z,99.90
2018-04-23T21:32:18.670Z,99.90
2018-04-23T21:34:46.323Z,99.90
2018-04-23T21:37:13.839Z,99.90
2018-04-23T21:39:41.490Z,99.90
2018-04-23T21:42:09.003Z,99.90
2018-04-23T21:44:36.553Z,99.90
2018-04-23T21:47:04.056Z,99.90
2018-04-23T21:49:31.615Z,99.90
2018-04-23T21:52:01.165Z,99.90
2018-04-23T21:54:28.695Z,99.90
2018-04-23T21:56:56.257Z,99.90
2018-04-23T21:59:23.876Z,99.90
2018-04-23T22:01:52.153Z,99.90
2018-04-23T22:04:20.448Z,99.90
2018-04-23T22:06:47.947Z,99.90
2018-04-23T22:09:15.480Z,99.90
2018-04-23T22:11:42.986Z,99.90
2018-04-23T22:14:10.866Z,99.90
2018-04-23T22:16:39.154Z,99.90
2018-04-23T22:19:07.448Z,99.90
2018-04-23T22:21:34.991Z,99.90
2018-04-23T22:24:02.622Z,99.90
2018-04-23T22:26:31.660Z,99.90
2018-04-23T22:28:59.151Z,99.90
2018-04-23T22:31:26.818Z,99.90
2018-04-23T22:33:54.330Z,99.90
2018-04-23T22:36:22.351Z,99.90
2018-04-23T22:38:49.939Z,99.90
2018-04-23T22:41:17.471Z,99.90
2018-04-23T22:43:44.970Z,99.90
2018-04-23T22:46:12.627Z,99.90
2018-04-23T22:48:40.227Z,99.90
2018-04-23T22:51:07.809Z,99.90
2018-04-23T22:53:35.332Z,99.90
2018-04-23T22:56:02.875Z,99.90
2018-04-23T22:58:30.561Z,99.90
2018-04-23T23:00:58.099Z,99.90
2018-04-23T23:03:26.362Z,99.90
2018-04-23T23:05:54.637Z,99.90
2018-04-23T23:08:22.954Z,99.90
2018-04-23T23:10:50.458Z,99.90
2018-04-23T23:13:18.023Z,99.90
2018-04-23T23:15:46.307Z,99.90
2018-04-23T23:18:14.664Z,99.90
2018-04-23T23:20:42.286Z,99.90
2018-04-23T23:23:09.831Z,99.90
2018-04-23T23:25:37.353Z,99.90
2018-04-23T23:28:04.927Z,99.90
2018-04-23T23:30:32.462Z,99.90
2018-04-23T23:33:00.064Z,99.90
2018-04-23T23:35:27.619Z,99.90
2018-04-23T23:37:56.060Z,99.90
2018-04-23T23:40:23.787Z,99.90
2018-04-23T23:42:51.316Z,99.90
2018-04-23T23:45:18.863Z,99.90
2018-04-23T23:47:47.129Z,99.90
2018-04-23T23:50:14.784Z,99.90
2018-04-23T23:52:42.388Z,99.90
2018-04-23T23:55:09.930Z,99.90
2018-04-23T23:57:38.191Z,99.90
